Time;durP1;ratioP1;P1;durP2;ratioP2;P2;SDS_P1;SDS_P2;PMS_P1;PMS_P2;Temp;Humidity;BMP_temperature;BMP_pressure;BME280_temperature;BME280_humidity;BME280_pressure;Samples;Min_cycle;Max_cycle;Signal;HPM_P1;HPM_P2
2022/01/09 00:01:39;;;;;;;40.13;25.85;;;;;;;6.77;62.96;100679.44;5030394;28;20418;-73
2022/01/09 00:04:06;;;;;;;39.57;24.90;;;;;;;6.69;63.39;100686.13;5030168;28;20509;-73
2022/01/09 00:06:34;;;;;;;40.03;25.60;;;;;;;6.95;62.62;100672.03;5030022;28;20414;-73
2022/01/09 00:09:01;;;;;;;41.70;25.95;;;;;;;7.04;62.50;100678.50;5030380;28;20410;-73
2022/01/09 00:11:30;;;;;;;45.08;26.73;;;;;;;6.81;63.13;100664.25;5029937;28;20452;-73
2022/01/09 00:13:57;;;;;;;40.53;24.70;;;;;;;6.78;63.02;100669.72;5029889;28;20796;-73
2022/01/09 00:16:25;;;;;;;38.38;23.58;;;;;;;6.85;62.87;100670.16;5029908;28;20505;-74
2022/01/09 00:18:52;;;;;;;42.60;25.00;;;;;;;6.94;62.87;100664.28;5029930;28;20521;-73
2022/01/09 00:21:19;;;;;;;44.70;26.38;;;;;;;7.19;61.67;100656.34;5030134;28;20420;-73
2022/01/09 00:23:46;;;;;;;45.38;26.17;;;;;;;7.32;61.53;100656.34;5030005;28;20429;-74
2022/01/09 00:26:14;;;;;;;43.22;25.20;;;;;;;7.32;61.53;100655.47;5028414;28;20410;-74
2022/01/09 00:28:43;;;;;;;39.17;24.42;;;;;;;7.29;61.22;100659.19;5029738;28;20997;-73
2022/01/09 00:31:10;;;;;;;43.72;25.85;;;;;;;7.17;61.84;100657.41;5002497;28;20916;-73
2022/01/09 00:33:37;;;;;;;50.50;30.77;;;;;;;7.32;61.42;100656.34;5029982;28;20417;-73
2022/01/09 00:36:04;;;;;;;45.83;28.75;;;;;;;7.43;61.25;100653.78;5029412;28;20502;-74
2022/01/09 00:38:31;;;;;;;49.30;29.42;;;;;;;7.45;60.98;100645.78;5029433;28;20434;-74
2022/01/09 00:40:58;;;;;;;45.83;27.90;;;;;;;7.41;60.95;100639.03;5029723;28;20584;-73
2022/01/09 00:43:26;;;;;;;53.88;30.55;;;;;;;7.51;60.86;100642.69;5029529;28;20460;-74
2022/01/09 00:45:54;;;;;;;89.22;44.33;;;;;;;7.44;61.08;100646.75;5029617;28;20422;-74
2022/01/09 00:48:21;;;;;;;46.88;25.83;;;;;;;7.51;61.13;100639.22;5029694;28;20414;-73
2022/01/09 00:50:48;;;;;;;71.38;37.63;;;;;;;7.45;61.45;100637.03;5029398;28;20514;-74
2022/01/09 00:53:15;;;;;;;61.75;33.40;;;;;;;7.53;60.99;100635.53;5029620;28;20489;-73
2022/01/09 00:55:42;;;;;;;48.58;27.33;;;;;;;7.54;60.96;100628.44;5029295;28;20505;-74
2022/01/09 00:58:09;;;;;;;45.30;25.00;;;;;;;7.45;61.26;100615.94;5029321;28;20517;-73
2022/01/09 01:00:39;;;;;;;43.28;23.73;;;;;;;7.30;61.21;100613.44;5026380;28;20505;-74
2022/01/09 01:03:07;;;;;;;44.70;24.83;;;;;;;7.28;61.74;100609.22;5029273;28;20965;-74
2022/01/09 01:05:35;;;;;;;73.63;34.07;;;;;;;7.25;61.86;100614.72;5029214;28;20788;-74
2022/01/09 01:08:02;;;;;;;42.53;22.23;;;;;;;7.16;61.95;100603.03;5027982;28;20446;-74
2022/01/09 01:10:29;;;;;;;60.13;30.80;;;;;;;7.13;62.42;100617.25;5032791;28;20512;-74
2022/01/09 01:12:56;;;;;;;69.78;32.88;;;;;;;7.34;61.75;100621.94;5033569;28;20422;-73
2022/01/09 01:15:23;;;;;;;54.17;29.67;;;;;;;7.45;61.29;100613.31;5033474;28;20422;-74
2022/01/09 01:17:50;;;;;;;40.28;25.67;;;;;;;7.17;61.53;100616.09;5033376;28;20513;-73
2022/01/09 01:20:22;;;;;;;43.35;27.08;;;;;;;6.96;62.29;100613.16;5033316;28;20437;-73
2022/01/09 01:22:50;;;;;;;46.70;28.45;;;;;;;6.71;62.68;100607.88;5032517;28;20414;-73
2022/01/09 01:25:17;;;;;;;39.30;26.00;;;;;;;7.02;62.30;100610.09;5032133;28;20426;-73
2022/01/09 01:27:45;;;;;;;42.58;26.52;;;;;;;6.69;62.76;100601.88;5032648;28;20410;-73
2022/01/09 01:30:12;;;;;;;39.63;27.02;;;;;;;6.77;63.06;100594.31;5032191;28;20870;-73
2022/01/09 01:32:40;;;;;;;40.95;26.92;;;;;;;6.91;62.66;100598.63;5002789;28;20425;-73
2022/01/09 01:35:08;;;;;;;46.80;31.10;;;;;;;6.71;63.24;100594.72;5032458;28;20504;-72
2022/01/09 01:37:40;;;;;;;37.10;26.60;;;;;;;6.78;63.02;100596.84;5032675;28;21230;-74
2022/01/09 01:40:09;;;;;;;40.92;28.48;;;;;;;6.77;63.02;100589.91;5033491;28;20410;-73
2022/01/09 01:42:36;;;;;;;40.72;27.88;;;;;;;6.96;62.23;100586.00;5033027;28;20418;-74
2022/01/09 01:45:04;;;;;;;36.85;25.42;;;;;;;6.82;62.53;100585.16;5032910;28;20418;-73
2022/01/09 01:47:31;;;;;;;38.40;25.35;;;;;;;6.92;62.30;100584.53;5015392;28;20493;-73
2022/01/09 01:49:58;;;;;;;40.35;26.80;;;;;;;6.85;62.40;100581.44;5032924;28;20468;-73
2022/01/09 01:52:31;;;;;;;36.55;25.42;;;;;;;6.84;62.63;100587.69;5032792;28;20426;-74
2022/01/09 01:55:00;;;;;;;36.70;26.08;;;;;;;6.81;62.33;100579.97;5032418;28;20414;-73
2022/01/09 01:57:29;;;;;;;35.40;24.73;;;;;;;6.77;62.69;100579.38;5032594;28;20464;-73
2022/01/09 01:59:56;;;;;;;34.13;23.95;;;;;;;6.99;62.23;100581.31;5032428;28;20421;-73
2022/01/09 02:02:25;;;;;;;37.78;24.33;;;;;;;6.90;62.27;100581.16;5032183;28;20501;-73
2022/01/09 02:04:52;;;;;;;35.95;24.70;;;;;;;6.87;62.30;100573.44;5032657;28;20414;-74
2022/01/09 02:07:20;;;;;;;36.55;25.17;;;;;;;6.68;62.31;100568.63;5032661;28;20510;-74
2022/01/09 02:09:47;;;;;;;36.58;25.50;;;;;;;6.56;63.48;100565.03;5032214;28;20417;-73
2022/01/09 02:12:15;;;;;;;38.83;26.60;;;;;;;6.45;63.85;100557.88;5032013;28;20418;-74
2022/01/09 02:14:46;;;;;;;39.10;26.83;;;;;;;6.77;62.62;100545.16;5032298;28;20488;-73
2022/01/09 02:17:17;;;;;;;37.92;25.52;;;;;;;6.55;62.98;100537.03;5046750;28;20475;-75
2022/01/09 02:19:51;;;;;;;38.78;26.40;;;;;;;6.86;62.53;100534.91;5032071;28;20414;-74
2022/01/09 02:22:19;;;;;;;35.80;25.50;;;;;;;6.79;62.33;100526.59;5031280;28;20986;-74
2022/01/09 02:24:46;;;;;;;35.47;24.83;;;;;;;7.02;61.79;100519.72;5032231;28;20414;-74
2022/01/09 02:27:14;;;;;;;37.30;25.20;;;;;;;6.97;61.63;100517.38;5047526;28;20432;-73
2022/01/09 02:29:41;;;;;;;35.28;24.30;;;;;;;6.91;61.99;100512.56;5032307;28;20497;-74
2022/01/09 02:32:09;;;;;;;33.20;23.77;;;;;;;6.79;62.49;100523.94;5002709;28;20538;-74
2022/01/09 02:34:36;;;;;;;34.33;24.53;;;;;;;6.79;62.41;100521.31;5032043;28;20512;-73
2022/01/09 02:37:05;;;;;;;34.63;24.15;;;;;;;6.65;62.61;100516.19;5032066;28;20493;-74
2022/01/09 02:39:32;;;;;;;35.10;24.33;;;;;;;6.90;62.21;100512.69;5031611;28;20517;-73
2022/01/09 02:41:59;;;;;;;36.23;24.67;;;;;;;6.97;61.70;100512.13;5031622;28;20947;-74
2022/01/09 02:44:26;;;;;;;37.35;24.75;;;;;;;6.92;61.77;100511.63;5031607;28;20406;-73
2022/01/09 02:47:01;;;;;;;35.45;24.63;;;;;;;6.81;62.22;100507.13;5031551;28;20406;-74
2022/01/09 02:49:29;;;;;;;37.40;24.80;;;;;;;6.71;62.71;100510.47;5031312;28;20500;-73
2022/01/09 02:51:58;;;;;;;40.83;26.40;;;;;;;6.31;63.59;100508.00;5031497;28;20495;-73
2022/01/09 02:57:10;;;;;;;40.38;27.00;;;;;;;6.71;62.88;100492.91;5031331;28;20409;-74
2022/01/09 02:59:37;;;;;;;37.07;25.10;;;;;;;6.30;63.55;100490.50;5031446;28;20564;-73
2022/01/09 03:02:04;;;;;;;40.92;28.70;;;;;;;6.67;63.01;100488.81;5031487;28;20489;-73
2022/01/09 03:04:31;;;;;;;35.67;26.00;;;;;;;6.79;62.47;100490.59;5031392;28;20449;-73
2022/01/09 03:06:58;;;;;;;33.88;24.52;;;;;;;6.92;62.42;100494.97;5031510;28;20421;-74
2022/01/09 03:09:27;;;;;;;33.63;24.35;;;;;;;6.90;61.81;100488.97;5031142;28;20792;-73
2022/01/09 03:11:54;;;;;;;34.17;24.73;;;;;;;6.84;62.09;100490.25;5031834;28;20453;-74
2022/01/09 03:14:21;;;;;;;37.25;25.15;;;;;;;6.89;61.86;100496.03;5030959;28;20406;-73
2022/01/09 03:16:48;;;;;;;33.53;24.13;;;;;;;7.01;61.40;100489.03;5031039;28;20537;-74
2022/01/09 03:19:15;;;;;;;32.38;23.45;;;;;;;6.78;61.97;100488.88;5030833;28;20512;-74
2022/01/09 03:21:42;;;;;;;34.17;23.45;;;;;;;6.84;61.50;100489.41;5031135;28;20497;-73
2022/01/09 03:24:09;;;;;;;34.50;24.20;;;;;;;6.61;62.14;100494.50;5031104;28;20916;-73
2022/01/09 03:26:37;;;;;;;34.15;23.60;;;;;;;6.75;62.20;100491.75;5031041;28;20975;-73
2022/01/09 03:29:04;;;;;;;30.73;21.77;;;;;;;6.65;61.99;100495.97;5031008;28;20485;-74
2022/01/09 03:31:32;;;;;;;30.88;21.75;;;;;;;6.64;61.73;100491.66;5002882;28;20498;-73
2022/01/09 03:33:58;;;;;;;33.72;22.45;;;;;;;6.21;63.31;100487.56;5031287;28;20417;-73
2022/01/09 03:36:25;;;;;;;32.42;23.08;;;;;;;6.54;62.44;100483.53;5030859;28;20414;-73
2022/01/09 03:38:52;;;;;;;34.50;23.17;;;;;;;6.37;62.87;100481.25;5030632;28;21015;-74
2022/01/09 03:41:19;;;;;;;34.93;23.57;;;;;;;6.49;62.37;100483.03;5030602;28;20418;-73
2022/01/09 03:43:48;;;;;;;35.50;23.48;;;;;;;6.59;62.49;100485.88;5030688;28;20438;-74
2022/01/09 03:46:15;;;;;;;34.45;23.60;;;;;;;6.56;62.52;100484.28;5030408;28;20963;-74
2022/01/09 03:48:42;;;;;;;35.22;23.10;;;;;;;6.29;63.04;100478.31;5030281;28;20433;-73
2022/01/09 03:51:10;;;;;;;33.50;22.08;;;;;;;6.08;64.00;100476.19;5030298;28;21000;-73
2022/01/09 03:53:39;;;;;;;28.20;20.20;;;;;;;6.00;63.91;100474.09;5030261;28;20458;-73
2022/01/09 03:56:06;;;;;;;27.83;19.93;;;;;;;6.19;63.58;100473.69;5030510;28;20422;-75
2022/01/09 03:58:35;;;;;;;28.33;19.60;;;;;;;5.85;64.45;100469.00;5030191;28;20438;-74
2022/01/09 04:01:06;;;;;;;24.87;19.63;;;;;;;6.10;64.15;100463.75;5030261;28;20509;-74
2022/01/09 04:03:33;;;;;;;25.42;19.23;;;;;;;6.17;63.71;100470.31;5030607;28;20406;-74
2022/01/09 04:06:01;;;;;;;199.48;160.93;;;;;;;6.68;62.42;100473.84;5029915;28;20425;-74
2022/01/09 04:08:29;;;;;;;26.52;20.98;;;;;;;6.54;62.08;100465.13;5030037;28;20417;-74
2022/01/09 04:10:56;;;;;;;26.85;23.92;;;;;;;6.48;62.52;100469.97;5030179;28;20449;-74
2022/01/09 04:13:23;;;;;;;26.75;21.55;;;;;;;6.49;62.27;100469.88;5030010;28;20406;-73
2022/01/09 04:15:51;;;;;;;67.55;61.75;;;;;;;6.61;62.25;100463.75;5030000;28;20414;-74
2022/01/09 04:18:21;;;;;;;33.33;29.95;;;;;;;6.67;61.58;100464.25;5029915;28;20808;-74
2022/01/09 04:20:49;;;;;;;25.30;20.73;;;;;;;6.90;60.90;100467.91;5029632;28;20415;-74
2022/01/09 04:23:17;;;;;;;28.35;23.55;;;;;;;6.84;61.10;100466.56;5030550;28;20501;-74
2022/01/09 04:25:45;;;;;;;26.02;21.48;;;;;;;6.58;61.77;100460.50;5029998;28;20406;-74
2022/01/09 04:28:13;;;;;;;27.10;22.35;;;;;;;6.71;61.56;100465.72;5029789;28;20449;-74
2022/01/09 04:30:41;;;;;;;45.88;40.30;;;;;;;6.78;61.48;100472.25;5014095;28;21411;-72
2022/01/09 04:33:10;;;;;;;52.75;47.03;;;;;;;6.82;61.39;100465.81;5018697;28;20414;-74
2022/01/09 04:35:40;;;;;;;30.40;24.77;;;;;;;6.92;60.89;100461.56;5029613;28;20419;-74
2022/01/09 04:38:07;;;;;;;29.67;24.25;;;;;;;6.91;61.18;100465.16;5029959;28;20415;-74
2022/01/09 04:40:35;;;;;;;28.05;22.05;;;;;;;7.02;60.54;100451.22;5029917;28;20410;-74
2022/01/09 04:43:06;;;;;;;26.83;20.83;;;;;;;6.97;61.09;100459.44;5044702;28;20999;-74
2022/01/09 04:45:33;;;;;;;26.73;21.40;;;;;;;7.10;60.43;100464.69;5011802;28;20422;-74
2022/01/09 04:48:03;;;;;;;24.88;20.20;;;;;;;7.07;60.26;100464.91;5029144;28;20410;-75
2022/01/09 04:50:32;;;;;;;26.95;20.85;;;;;;;7.04;60.28;100454.59;5029872;28;20516;-74
2022/01/09 04:53:05;;;;;;;24.30;19.95;;;;;;;7.06;60.27;100457.97;5030159;28;20468;-74
2022/01/09 04:55:33;;;;;;;26.77;23.88;;;;;;;7.05;60.49;100452.78;5029362;28;20505;-74
2022/01/09 04:58:00;;;;;;;24.63;21.17;;;;;;;7.07;60.11;100448.25;5012050;28;20449;-74
2022/01/09 05:00:28;;;;;;;25.63;21.05;;;;;;;6.97;60.31;100446.28;5029382;28;20434;-74
2022/01/09 05:02:55;;;;;;;27.45;22.27;;;;;;;7.15;59.94;100440.63;5029349;28;20948;-74
2022/01/09 05:05:23;;;;;;;27.90;21.88;;;;;;;7.09;60.09;100443.72;5029714;28;20414;-74
2022/01/09 05:07:50;;;;;;;27.27;22.70;;;;;;;7.22;59.95;100444.53;5029644;28;20508;-74
2022/01/09 05:10:19;;;;;;;25.55;21.75;;;;;;;7.20;59.82;100431.44;5029186;28;20900;-74
2022/01/09 05:12:46;;;;;;;24.67;20.97;;;;;;;7.28;59.64;100448.47;5044877;28;20560;-73
2022/01/09 05:15:15;;;;;;;26.50;21.63;;;;;;;7.33;59.16;100441.91;5029464;28;20425;-74
2022/01/09 05:17:42;;;;;;;25.87;22.10;;;;;;;7.25;59.56;100446.91;5029132;28;20465;-74
2022/01/09 05:20:10;;;;;;;29.27;22.40;;;;;;;7.22;59.63;100440.09;5029067;28;20840;-74
2022/01/09 05:22:38;;;;;;;26.95;23.92;;;;;;;7.19;59.78;100436.81;5028974;28;20421;-74
2022/01/09 05:25:07;;;;;;;32.70;29.20;;;;;;;7.17;59.76;100428.19;5029252;28;20509;-74
2022/01/09 05:27:36;;;;;;;36.40;32.67;;;;;;;7.05;59.94;100426.47;5029393;28;20414;-74
2022/01/09 05:30:05;;;;;;;29.02;25.20;;;;;;;6.91;60.55;100427.44;5029238;28;20602;-74
2022/01/09 05:32:32;;;;;;;30.23;27.02;;;;;;;7.02;60.20;100428.34;5014290;28;20609;-73
2022/01/09 05:34:59;;;;;;;37.08;33.47;;;;;;;6.97;60.25;100429.63;5029162;28;20453;-74
2022/01/09 05:37:26;;;;;;;25.75;22.88;;;;;;;7.12;59.77;100428.53;5029159;28;20433;-74
2022/01/09 05:39:53;;;;;;;23.67;19.08;;;;;;;7.05;59.81;100418.56;5029267;28;20444;-73
2022/01/09 05:42:20;;;;;;;25.48;21.13;;;;;;;7.05;60.43;100421.19;5029222;28;20506;-74
2022/01/09 05:44:49;;;;;;;79.13;54.75;;;;;;;7.01;60.42;100418.78;5028860;28;20816;-74
2022/01/09 05:47:16;;;;;;;70.85;47.10;;;;;;;7.20;59.62;100420.91;5029303;28;20445;-74
2022/01/09 05:49:43;;;;;;;120.25;84.15;;;;;;;7.31;59.23;100424.56;5029017;28;20426;-74
2022/01/09 05:52:10;;;;;;;40.30;31.80;;;;;;;7.22;59.11;100421.63;5029124;28;20509;-72
2022/01/09 05:54:37;;;;;;;54.58;47.65;;;;;;;7.05;59.80;100419.38;5028739;28;20430;-74
2022/01/09 05:57:05;;;;;;;42.70;38.88;;;;;;;7.10;59.72;100416.44;5031746;28;20413;-74
2022/01/09 05:59:32;;;;;;;25.05;22.50;;;;;;;7.25;59.38;100411.81;5032646;28;20513;-73
2022/01/09 06:02:00;;;;;;;27.48;24.83;;;;;;;7.34;58.85;100404.09;5031813;28;20484;-74
2022/01/09 06:04:28;;;;;;;24.52;22.02;;;;;;;7.32;58.82;100406.00;5032035;28;20418;-74
2022/01/09 06:06:55;;;;;;;19.23;16.90;;;;;;;7.20;59.07;100413.00;5032608;28;20418;-73
2022/01/09 06:09:23;;;;;;;21.52;17.88;;;;;;;6.93;59.57;100415.84;5032292;28;20419;-74
2022/01/09 06:11:50;;;;;;;21.50;18.00;;;;;;;6.79;60.23;100413.38;5032591;28;20517;-74
2022/01/09 06:14:17;;;;;;;27.17;24.48;;;;;;;7.15;59.36;100411.66;5031953;28;20437;-74
2022/01/09 06:16:44;;;;;;;32.45;29.08;;;;;;;7.28;58.89;100409.81;5031986;28;20414;-74
2022/01/09 06:19:13;;;;;;;31.67;28.27;;;;;;;7.30;58.93;100407.03;5014294;28;20521;-74
2022/01/09 06:21:40;;;;;;;37.10;33.42;;;;;;;7.26;59.03;100406.44;5032224;28;20501;-74
2022/01/09 06:24:07;;;;;;;28.50;25.58;;;;;;;7.26;58.94;100408.22;5032140;28;20796;-73
2022/01/09 06:26:34;;;;;;;28.25;25.55;;;;;;;7.38;58.72;100416.09;5047033;28;20509;-73
2022/01/09 06:29:01;;;;;;;24.17;21.75;;;;;;;7.50;58.17;100424.00;5032210;28;20425;-74
2022/01/09 06:31:28;;;;;;;22.95;20.73;;;;;;;7.37;58.46;100422.28;5011891;28;20418;-74
2022/01/09 06:33:55;;;;;;;55.27;50.73;;;;;;;7.39;58.57;100420.38;5031888;28;20894;-74
2022/01/09 06:36:23;;;;;;;71.68;65.70;;;;;;;7.34;58.60;100422.53;5031993;28;20999;-74
2022/01/09 06:38:50;;;;;;;43.33;39.43;;;;;;;7.27;58.78;100417.81;5031449;28;20591;-74
2022/01/09 06:41:17;;;;;;;43.80;39.65;;;;;;;7.26;58.62;100426.66;5014071;28;20421;-73
2022/01/09 06:43:45;;;;;;;32.47;29.40;;;;;;;7.43;58.45;100416.56;5047056;28;20445;-74
2022/01/09 06:46:12;;;;;;;20.85;18.67;;;;;;;7.42;58.52;100417.53;5031846;28;20414;-73
2022/01/09 06:48:39;;;;;;;19.98;18.15;;;;;;;7.52;58.00;100422.09;5031660;28;20485;-74
2022/01/09 06:51:06;;;;;;;18.67;16.97;;;;;;;7.64;58.02;100418.53;5047294;28;20586;-74
2022/01/09 06:53:35;;;;;;;18.13;16.33;;;;;;;7.63;57.57;100415.06;5031376;28;20497;-74
2022/01/09 06:56:01;;;;;;;41.80;38.20;;;;;;;7.66;57.52;100419.28;5031817;28;20406;-74
2022/01/09 06:58:29;;;;;;;20.67;18.67;;;;;;;7.74;57.66;100416.91;5031536;28;20417;-74
2022/01/09 07:00:57;;;;;;;21.00;18.80;;;;;;;7.57;58.15;100414.72;5031257;28;20498;-74
2022/01/09 07:03:24;;;;;;;29.25;26.42;;;;;;;7.79;57.47;100424.47;5030014;28;20406;-74
2022/01/09 07:05:51;;;;;;;33.13;30.15;;;;;;;7.69;57.67;100426.13;5031550;28;20415;-74
2022/01/09 07:08:18;;;;;;;26.88;24.38;;;;;;;7.53;57.81;100423.81;5030966;28;20488;-73
2022/01/09 07:10:47;;;;;;;21.98;19.90;;;;;;;7.53;58.13;100427.28;5031096;28;20465;-74
2022/01/09 07:13:15;;;;;;;20.92;18.83;;;;;;;7.59;57.62;100420.69;5031370;28;20410;-74
2022/01/09 07:15:42;;;;;;;18.80;16.83;;;;;;;7.71;57.44;100414.50;5031089;28;20938;-74
2022/01/09 07:18:09;;;;;;;18.67;16.53;;;;;;;7.71;57.32;100424.22;5031446;28;20415;-74
2022/01/09 07:20:36;;;;;;;21.40;19.13;;;;;;;7.74;57.38;100421.34;5031186;28;20441;-74
2022/01/09 07:23:03;;;;;;;22.00;19.35;;;;;;;7.66;57.64;100418.44;5046022;28;20423;-74
2022/01/09 07:25:30;;;;;;;33.92;29.55;;;;;;;7.77;57.38;100405.28;5030274;28;20410;-75
2022/01/09 07:28:01;;;;;;;27.58;24.60;;;;;;;7.68;57.53;100405.97;5012393;28;20425;-74
2022/01/09 07:30:28;;;;;;;27.00;22.70;;;;;;;7.86;57.27;100416.94;5023917;28;20916;-71
2022/01/09 07:32:56;;;;;;;24.43;21.63;;;;;;;7.81;57.26;100410.22;5019056;28;20851;-75
2022/01/09 07:35:23;;;;;;;20.63;18.50;;;;;;;8.01;56.90;100413.13;5029829;28;20915;-74
2022/01/09 07:37:50;;;;;;;24.03;21.63;;;;;;;7.99;56.96;100418.53;5030147;28;20494;-74
2022/01/09 07:40:19;;;;;;;18.73;16.95;;;;;;;7.92;56.81;100419.09;5030618;28;20525;-74
2022/01/09 07:42:47;;;;;;;17.25;15.68;;;;;;;7.90;56.48;100416.56;5030572;28;20472;-74
2022/01/09 07:45:16;;;;;;;23.88;21.60;;;;;;;8.08;56.54;100414.31;5030615;28;20418;-74
2022/01/09 07:47:44;;;;;;;20.73;18.80;;;;;;;8.12;56.32;100399.09;5030438;28;20865;-76
2022/01/09 07:50:12;;;;;;;18.30;16.50;;;;;;;8.21;56.02;100401.88;5046197;28;20457;-75
2022/01/09 07:52:39;;;;;;;23.98;21.48;;;;;;;8.30;56.02;100407.38;5030577;28;20449;-74
2022/01/09 07:55:07;;;;;;;25.63;19.80;;;;;;;8.37;56.16;100403.28;5030403;28;20789;-75
2022/01/09 07:57:35;;;;;;;21.45;19.25;;;;;;;8.45;55.57;100395.63;5030416;28;20421;-75
2022/01/09 08:00:03;;;;;;;25.17;22.45;;;;;;;8.54;55.21;100392.28;5030193;28;20516;-75
2022/01/09 08:02:32;;;;;;;19.03;17.07;;;;;;;8.63;54.19;100398.63;5030449;28;20900;-75
2022/01/09 08:04:59;;;;;;;27.23;24.03;;;;;;;8.59;54.55;100394.56;5030075;28;20422;-75
2022/01/09 08:07:26;;;;;;;23.73;20.35;;;;;;;8.45;54.98;100394.81;5030159;28;20509;-75
2022/01/09 08:09:53;;;;;;;26.85;24.15;;;;;;;8.49;54.96;100388.31;5012544;28;20496;-75
2022/01/09 08:12:20;;;;;;;17.15;15.35;;;;;;;8.54;54.54;100387.00;5030047;28;20450;-76
2022/01/09 08:14:47;;;;;;;15.57;13.87;;;;;;;8.60;54.72;100388.31;5030108;28;20588;-75
2022/01/09 08:17:15;;;;;;;17.35;15.10;;;;;;;8.55;54.63;100388.66;5029982;28;20992;-76
2022/01/09 08:19:44;;;;;;;27.23;20.20;;;;;;;8.77;54.09;100392.25;5029104;28;21030;-75
2022/01/09 08:22:11;;;;;;;20.75;17.55;;;;;;;8.55;54.54;100377.28;5029891;28;20497;-76
2022/01/09 08:24:38;;;;;;;17.92;15.38;;;;;;;8.11;55.79;100373.66;5030301;28;20493;-75
2022/01/09 08:27:06;;;;;;;17.27;14.43;;;;;;;8.33;55.39;100371.03;5029908;28;20908;-75
2022/01/09 08:29:34;;;;;;;16.95;14.07;;;;;;;8.33;55.09;100371.03;5029743;28;20505;-75
2022/01/09 08:32:01;;;;;;;16.50;13.43;;;;;;;8.10;56.09;100358.81;5015611;28;21014;-74
2022/01/09 08:34:28;;;;;;;14.30;11.20;;;;;;;8.67;54.88;100363.09;5028127;28;20434;-74
2022/01/09 08:36:58;;;;;;;13.95;11.65;;;;;;;9.09;53.56;100363.22;5026835;28;20411;-74
2022/01/09 08:39:25;;;;;;;14.68;11.80;;;;;;;9.38;53.67;100367.88;5029265;28;20788;-76
2022/01/09 08:41:52;;;;;;;13.88;11.60;;;;;;;9.38;53.13;100362.59;5027089;28;20415;-74
2022/01/09 08:44:19;;;;;;;17.48;14.45;;;;;;;9.04;53.60;100360.09;5027656;28;20411;-75
2022/01/09 08:46:46;;;;;;;14.20;11.07;;;;;;;9.11;52.54;100363.09;5027535;28;20481;-75
2022/01/09 08:49:13;;;;;;;12.27;10.55;;;;;;;8.93;53.16;100360.16;5026485;28;20429;-75
2022/01/09 08:51:40;;;;;;;10.05;8.95;;;;;;;9.15;52.25;100356.59;5028084;28;20485;-75
2022/01/09 08:54:11;;;;;;;14.85;12.57;;;;;;;9.56;51.18;100363.69;5027879;28;21331;-75
2022/01/09 08:56:39;;;;;;;12.00;10.65;;;;;;;9.50;50.79;100358.09;5029823;28;20420;-75
2022/01/09 08:59:06;;;;;;;14.35;12.85;;;;;;;9.71;50.67;100363.38;5012332;28;20467;-75
2022/01/09 09:01:33;;;;;;;10.73;9.63;;;;;;;9.66;50.62;100358.47;5029137;28;20961;-75
2022/01/09 09:04:01;;;;;;;16.57;14.87;;;;;;;10.13;49.81;100364.13;5029372;28;20475;-74
2022/01/09 09:06:28;;;;;;;21.90;18.67;;;;;;;10.20;49.90;100361.81;5029647;28;20418;-74
2022/01/09 09:08:55;;;;;;;12.93;11.48;;;;;;;10.06;50.08;100356.84;5029644;28;20418;-76
2022/01/09 09:11:23;;;;;;;11.80;10.68;;;;;;;10.20;48.94;100353.88;5012215;28;20442;-72
2022/01/09 09:13:50;;;;;;;15.57;13.30;;;;;;;10.26;48.99;100352.47;5029267;28;20421;-77
2022/01/09 09:16:17;;;;;;;11.25;9.15;;;;;;;10.30;49.15;100353.91;5029250;28;20955;-74
2022/01/09 09:18:46;;;;;;;13.67;11.97;;;;;;;10.71;48.41;100342.34;5029085;28;20558;-70
2022/01/09 09:21:14;;;;;;;12.73;11.35;;;;;;;10.80;48.57;100343.31;5043882;28;20430;-70
2022/01/09 09:23:41;;;;;;;10.68;9.57;;;;;;;10.44;47.53;100337.66;5028971;28;20456;-69
2022/01/09 09:26:07;;;;;;;6.80;6.13;;;;;;;10.80;47.91;100348.63;5028993;28;20501;-70
2022/01/09 09:28:36;;;;;;;7.90;7.10;;;;;;;10.57;48.08;100340.06;5028881;28;20516;-71
2022/01/09 09:31:03;;;;;;;9.33;8.33;;;;;;;11.09;47.24;100329.22;5013043;28;20489;-68
2022/01/09 09:33:30;;;;;;;22.42;19.90;;;;;;;12.26;45.26;100326.31;5048398;28;20417;-68
2022/01/09 09:35:59;;;;;;;28.50;25.33;;;;;;;12.85;43.17;100324.97;5033112;28;20413;-68
2022/01/09 09:38:26;;;;;;;32.35;28.92;;;;;;;13.10;42.65;100318.06;5032577;28;20419;-66
2022/01/09 09:40:53;;;;;;;42.60;30.55;;;;;;;13.61;41.86;100320.97;5033290;28;20509;-66
2022/01/09 09:43:20;;;;;;;29.45;24.45;;;;;;;13.42;41.62;100300.69;5031907;28;20540;-67
2022/01/09 09:45:48;;;;;;;43.13;37.42;;;;;;;13.28;41.90;100299.44;5031464;28;20509;-66
2022/01/09 09:48:16;;;;;;;25.37;22.63;;;;;;;12.62;43.83;100292.69;5031719;28;20863;-66
2022/01/09 09:50:43;;;;;;;61.53;54.80;;;;;;;12.99;42.88;100297.84;5031760;28;20497;-67
2022/01/09 09:53:10;;;;;;;19.67;12.27;;;;;;;12.90;43.07;100298.78;5032380;28;20512;-66
2022/01/09 09:55:37;;;;;;;19.55;12.50;;;;;;;11.90;44.67;100297.00;5032514;28;20911;-66
2022/01/09 09:58:04;;;;;;;15.75;12.75;;;;;;;12.09;44.00;100296.91;5032332;28;20811;-67
2022/01/09 10:00:32;;;;;;;129.43;116.30;;;;;;;11.76;44.64;100285.84;5031962;28;20461;-67
2022/01/09 10:03:02;;;;;;;26.80;22.08;;;;;;;11.75;45.11;100281.50;5032342;28;20819;-67
2022/01/09 10:05:34;;;;;;;20.92;17.98;;;;;;;11.27;46.89;100279.81;5032165;28;20468;-66
2022/01/09 10:08:06;;;;;;;46.85;38.10;;;;;;;11.11;46.44;100279.56;5032474;28;20501;-66
2022/01/09 10:10:35;;;;;;;35.13;27.95;;;;;;;10.50;47.37;100285.97;5031816;28;20778;-67
2022/01/09 10:13:08;;;;;;;56.17;40.85;;;;;;;10.77;47.31;100288.78;5032259;28;20421;-66
2022/01/09 10:15:45;;;;;;;108.35;69.53;;;;;;;10.34;47.91;100289.13;5032002;28;20414;-66
2022/01/09 10:18:14;;;;;;;71.40;54.88;;;;;;;9.82;49.28;100287.41;5032261;28;20468;-66
2022/01/09 10:20:41;;;;;;;35.88;30.08;;;;;;;10.10;48.62;100290.31;5031768;28;20943;-66
2022/01/09 10:23:08;;;;;;;28.70;24.42;;;;;;;10.17;48.27;100291.44;5031828;28;20501;-66
2022/01/09 10:25:37;;;;;;;29.15;23.92;;;;;;;10.38;47.81;100287.88;5031781;28;20840;-67
2022/01/09 10:28:07;;;;;;;60.28;49.75;;;;;;;10.51;47.15;100280.53;5031284;28;20425;-66
2022/01/09 10:30:37;;;;;;;34.97;31.10;;;;;;;10.88;47.12;100271.06;5029365;28;20500;-66
2022/01/09 10:33:07;;;;;;;25.17;19.25;;;;;;;10.95;46.34;100266.91;5016967;28;20987;-66
2022/01/09 10:35:36;;;;;;;37.63;27.52;;;;;;;11.14;46.06;100266.88;5030684;28;20501;-66
2022/01/09 10:38:12;;;;;;;23.02;19.05;;;;;;;10.41;47.17;100266.44;5029985;28;20410;-66
2022/01/09 10:40:41;;;;;;;20.88;18.77;;;;;;;11.08;45.85;100258.66;5032025;28;20629;-66
2022/01/09 10:43:11;;;;;;;21.03;18.83;;;;;;;11.15;45.78;100243.84;5030630;28;21007;-67
2022/01/09 10:45:40;;;;;;;28.63;25.13;;;;;;;11.49;44.52;100240.69;5031456;28;20869;-67
2022/01/09 10:48:10;;;;;;;25.25;22.75;;;;;;;11.99;43.76;100229.75;5031685;28;20468;-67
2022/01/09 10:50:41;;;;;;;20.13;18.03;;;;;;;12.28;43.08;100239.38;5031530;28;20498;-67
2022/01/09 10:53:29;;;;;;;20.40;18.40;;;;;;;11.88;43.49;100238.72;5031799;28;20441;-66
2022/01/09 10:56:19;;;;;;;26.70;24.15;;;;;;;12.34;42.87;100241.41;5031332;28;20930;-66
2022/01/09 10:58:48;;;;;;;20.50;18.48;;;;;;;12.31;43.03;100231.94;5026623;28;20418;-67
2022/01/09 11:01:20;;;;;;;16.27;14.52;;;;;;;12.03;43.82;100231.13;5031262;28;20434;-67
2022/01/09 11:03:50;;;;;;;20.13;17.80;;;;;;;12.36;42.72;100223.50;5031317;28;20497;-66
2022/01/09 11:06:19;;;;;;;19.50;17.48;;;;;;;11.97;42.90;100221.09;5031485;28;20504;-66
2022/01/09 11:08:47;;;;;;;25.63;22.75;;;;;;;12.69;41.83;100229.97;5031555;28;20495;-67
2022/01/09 11:11:24;;;;;;;8.95;8.15;;;;;;;13.14;41.31;100226.34;5031380;28;20434;-67
2022/01/09 11:13:52;;;;;;;7.22;6.50;;;;;;;13.77;40.06;100219.91;5030932;28;20422;-67
2022/01/09 11:16:36;;;;;;;8.70;7.68;;;;;;;13.54;39.91;100214.28;5030691;28;20437;-66
2022/01/09 11:19:14;;;;;;;10.40;7.15;;;;;;;12.52;41.85;100214.88;5031197;28;20965;-66
2022/01/09 11:21:44;;;;;;;13.15;9.55;;;;;;;12.55;42.21;100215.41;5030402;28;20434;-66
2022/01/09 11:24:41;;;;;;;20.00;17.05;;;;;;;12.71;41.80;100206.75;5030857;28;20414;-67